Terminal Aerodrome Forecast
Issued by NWS Cleveland, OH

Home | Current Version | Previous Version | Graphics & Text | Print | Product List | Glossary On
Versions: 1 2 3 4 5 6 7 8 9 10 11 12 13 14 15 16 17 18 19 20 21 22 23 24 25 26
116
FTUS41 KCLE 210901 AAB
TAFCLE
TAF AMD
KCLE 210901Z 2109/2212 04005KT P6SM VCSH OVC060
      TEMPO 2110/2113 5SM -SHRA OVC025
     FM211300 05006KT 6SM -SHRA OVC018
     FM211600 02010G18KT P6SM -SHRA OVC025
     FM212100 01007KT P6SM VCSH SCT030 OVC060
     FM220200 VRB03KT P6SM BKN120=

USA.gov is the U.S. government's official web portal to all federal, state and local government web resources and services.